sensor_id;sensor_type;location;lat;lon;timestamp;P1;durP1;ratioP1;P2;durP2;ratioP2
71800;SDS011;59647;55.838;37.292;2023-04-24T00:00:19;12.27;;;4.70;;
71800;SDS011;59647;55.838;37.292;2023-04-24T00:02:45;8.45;;;3.63;;
71800;SDS011;59647;55.838;37.292;2023-04-24T00:05:15;11.45;;;3.53;;
71800;SDS011;59647;55.838;37.292;2023-04-24T00:07:43;11.25;;;3.60;;
71800;SDS011;59647;55.838;37.292;2023-04-24T00:10:10;13.77;;;4.97;;
71800;SDS011;59647;55.838;37.292;2023-04-24T00:12:37;10.27;;;3.65;;
71800;SDS011;59647;55.838;37.292;2023-04-24T00:15:03;9.40;;;4.63;;
71800;SDS011;59647;55.838;37.292;2023-04-24T00:17:30;10.35;;;3.75;;
71800;SDS011;59647;55.838;37.292;2023-04-24T00:19:56;16.25;;;4.38;;
71800;SDS011;59647;55.838;37.292;2023-04-24T00:22:26;11.60;;;5.05;;
71800;SDS011;59647;55.838;37.292;2023-04-24T00:24:53;10.55;;;4.20;;
71800;SDS011;59647;55.838;37.292;2023-04-24T00:27:19;12.13;;;4.72;;
71800;SDS011;59647;55.838;37.292;2023-04-24T00:29:45;11.38;;;4.20;;
71800;SDS011;59647;55.838;37.292;2023-04-24T00:32:11;11.52;;;4.32;;
71800;SDS011;59647;55.838;37.292;2023-04-24T00:34:37;8.63;;;3.92;;
71800;SDS011;59647;55.838;37.292;2023-04-24T00:37:03;14.38;;;4.20;;
71800;SDS011;59647;55.838;37.292;2023-04-24T00:39:29;17.45;;;5.60;;
71800;SDS011;59647;55.838;37.292;2023-04-24T00:41:55;12.27;;;4.97;;
71800;SDS011;59647;55.838;37.292;2023-04-24T00:44:22;17.00;;;6.32;;
71800;SDS011;59647;55.838;37.292;2023-04-24T00:46:48;13.82;;;5.00;;
71800;SDS011;59647;55.838;37.292;2023-04-24T00:49:21;13.80;;;5.65;;
71800;SDS011;59647;55.838;37.292;2023-04-24T00:51:48;11.98;;;5.57;;
71800;SDS011;59647;55.838;37.292;2023-04-24T00:54:17;13.77;;;5.05;;
71800;SDS011;59647;55.838;37.292;2023-04-24T00:56:44;11.88;;;4.85;;
71800;SDS011;59647;55.838;37.292;2023-04-24T00:59:13;13.00;;;5.30;;
71800;SDS011;59647;55.838;37.292;2023-04-24T01:01:41;9.45;;;5.47;;
71800;SDS011;59647;55.838;37.292;2023-04-24T01:04:08;14.40;;;5.80;;
71800;SDS011;59647;55.838;37.292;2023-04-24T01:06:35;14.75;;;5.32;;
71800;SDS011;59647;55.838;37.292;2023-04-24T01:09:04;13.98;;;5.47;;
71800;SDS011;59647;55.838;37.292;2023-04-24T01:11:30;10.27;;;5.60;;
71800;SDS011;59647;55.838;37.292;2023-04-24T01:13:56;14.63;;;5.70;;
71800;SDS011;59647;55.838;37.292;2023-04-24T01:16:24;10.82;;;5.13;;
71800;SDS011;59647;55.838;37.292;2023-04-24T01:18:50;12.00;;;6.55;;
71800;SDS011;59647;55.838;37.292;2023-04-24T01:21:18;9.95;;;5.68;;
71800;SDS011;59647;55.838;37.292;2023-04-24T01:23:46;13.45;;;5.43;;
71800;SDS011;59647;55.838;37.292;2023-04-24T01:26:13;16.58;;;5.70;;
71800;SDS011;59647;55.838;37.292;2023-04-24T01:28:42;13.73;;;6.10;;
71800;SDS011;59647;55.838;37.292;2023-04-24T01:31:08;13.05;;;5.85;;
71800;SDS011;59647;55.838;37.292;2023-04-24T01:33:34;13.70;;;5.97;;
71800;SDS011;59647;55.838;37.292;2023-04-24T01:36:00;14.27;;;6.38;;
71800;SDS011;59647;55.838;37.292;2023-04-24T01:38:27;16.70;;;5.82;;
71800;SDS011;59647;55.838;37.292;2023-04-24T01:40:53;9.80;;;6.10;;
71800;SDS011;59647;55.838;37.292;2023-04-24T01:43:19;20.10;;;6.60;;
71800;SDS011;59647;55.838;37.292;2023-04-24T01:45:45;13.57;;;6.20;;
71800;SDS011;59647;55.838;37.292;2023-04-24T01:48:12;13.52;;;5.85;;
71800;SDS011;59647;55.838;37.292;2023-04-24T01:50:38;13.88;;;6.43;;
71800;SDS011;59647;55.838;37.292;2023-04-24T01:53:04;13.63;;;6.32;;
71800;SDS011;59647;55.838;37.292;2023-04-24T01:55:30;12.85;;;6.30;;
71800;SDS011;59647;55.838;37.292;2023-04-24T01:57:56;14.63;;;6.45;;
71800;SDS011;59647;55.838;37.292;2023-04-24T02:00:24;15.07;;;6.18;;
71800;SDS011;59647;55.838;37.292;2023-04-24T02:02:52;13.75;;;7.35;;
71800;SDS011;59647;55.838;37.292;2023-04-24T02:05:18;13.93;;;6.05;;
71800;SDS011;59647;55.838;37.292;2023-04-24T02:07:44;16.02;;;6.28;;
71800;SDS011;59647;55.838;37.292;2023-04-24T02:10:10;16.75;;;6.85;;
71800;SDS011;59647;55.838;37.292;2023-04-24T02:12:41;18.70;;;6.15;;
71800;SDS011;59647;55.838;37.292;2023-04-24T02:15:07;21.00;;;6.88;;
71800;SDS011;59647;55.838;37.292;2023-04-24T02:17:37;15.07;;;6.05;;
71800;SDS011;59647;55.838;37.292;2023-04-24T02:20:04;15.52;;;7.25;;
71800;SDS011;59647;55.838;37.292;2023-04-24T02:22:31;15.90;;;7.35;;
71800;SDS011;59647;55.838;37.292;2023-04-24T02:25:01;15.02;;;8.07;;
71800;SDS011;59647;55.838;37.292;2023-04-24T02:27:31;18.73;;;6.40;;
71800;SDS011;59647;55.838;37.292;2023-04-24T02:29:57;15.48;;;6.57;;
71800;SDS011;59647;55.838;37.292;2023-04-24T02:32:22;19.17;;;7.30;;
71800;SDS011;59647;55.838;37.292;2023-04-24T02:34:49;10.50;;;6.10;;
71800;SDS011;59647;55.838;37.292;2023-04-24T02:37:15;10.50;;;5.15;;
71800;SDS011;59647;55.838;37.292;2023-04-24T02:39:43;14.10;;;5.97;;
71800;SDS011;59647;55.838;37.292;2023-04-24T02:42:09;18.50;;;7.10;;
71800;SDS011;59647;55.838;37.292;2023-04-24T02:44:35;25.00;;;7.72;;
71800;SDS011;59647;55.838;37.292;2023-04-24T02:47:01;11.25;;;6.32;;
71800;SDS011;59647;55.838;37.292;2023-04-24T02:49:27;19.40;;;6.82;;
71800;SDS011;59647;55.838;37.292;2023-04-24T02:51:54;19.63;;;7.20;;
71800;SDS011;59647;55.838;37.292;2023-04-24T02:54:20;13.68;;;6.07;;
71800;SDS011;59647;55.838;37.292;2023-04-24T02:56:46;22.27;;;8.80;;
71800;SDS011;59647;55.838;37.292;2023-04-24T02:59:12;16.90;;;6.78;;
71800;SDS011;59647;55.838;37.292;2023-04-24T03:01:38;18.60;;;7.97;;
71800;SDS011;59647;55.838;37.292;2023-04-24T03:04:04;28.45;;;7.47;;
71800;SDS011;59647;55.838;37.292;2023-04-24T03:06:30;16.38;;;7.18;;
71800;SDS011;59647;55.838;37.292;2023-04-24T03:08:58;15.32;;;7.22;;
71800;SDS011;59647;55.838;37.292;2023-04-24T03:11:25;17.05;;;7.30;;
71800;SDS011;59647;55.838;37.292;2023-04-24T03:13:51;18.10;;;7.97;;
71800;SDS011;59647;55.838;37.292;2023-04-24T03:16:19;17.70;;;7.47;;
71800;SDS011;59647;55.838;37.292;2023-04-24T03:18:46;20.63;;;7.25;;
71800;SDS011;59647;55.838;37.292;2023-04-24T03:21:13;16.83;;;7.20;;
71800;SDS011;59647;55.838;37.292;2023-04-24T03:23:40;19.02;;;8.00;;
71800;SDS011;59647;55.838;37.292;2023-04-24T03:26:07;16.17;;;7.55;;
71800;SDS011;59647;55.838;37.292;2023-04-24T03:28:36;16.10;;;7.10;;
71800;SDS011;59647;55.838;37.292;2023-04-24T03:31:03;16.65;;;7.68;;
71800;SDS011;59647;55.838;37.292;2023-04-24T03:33:34;21.08;;;7.38;;
71800;SDS011;59647;55.838;37.292;2023-04-24T03:36:01;18.92;;;7.85;;
71800;SDS011;59647;55.838;37.292;2023-04-24T03:38:36;30.75;;;8.05;;
71800;SDS011;59647;55.838;37.292;2023-04-24T03:41:25;15.48;;;6.85;;
71800;SDS011;59647;55.838;37.292;2023-04-24T03:44:13;15.35;;;7.95;;
71800;SDS011;59647;55.838;37.292;2023-04-24T03:46:40;15.55;;;6.53;;
71800;SDS011;59647;55.838;37.292;2023-04-24T03:49:06;12.07;;;6.38;;
71800;SDS011;59647;55.838;37.292;2023-04-24T03:51:35;14.10;;;6.38;;
71800;SDS011;59647;55.838;37.292;2023-04-24T03:54:17;18.38;;;7.55;;
71800;SDS011;59647;55.838;37.292;2023-04-24T03:56:44;16.65;;;7.45;;
71800;SDS011;59647;55.838;37.292;2023-04-24T03:59:10;19.13;;;5.70;;
71800;SDS011;59647;55.838;37.292;2023-04-24T04:01:38;12.40;;;6.47;;
71800;SDS011;59647;55.838;37.292;2023-04-24T04:04:11;11.15;;;6.28;;
71800;SDS011;59647;55.838;37.292;2023-04-24T04:06:37;19.40;;;6.57;;
71800;SDS011;59647;55.838;37.292;2023-04-24T04:09:04;13.35;;;7.05;;
71800;SDS011;59647;55.838;37.292;2023-04-24T04:11:30;13.63;;;6.72;;
71800;SDS011;59647;55.838;37.292;2023-04-24T04:13:56;14.05;;;6.55;;
71800;SDS011;59647;55.838;37.292;2023-04-24T04:16:22;13.68;;;7.25;;
71800;SDS011;59647;55.838;37.292;2023-04-24T04:18:52;12.48;;;5.97;;
71800;SDS011;59647;55.838;37.292;2023-04-24T04:21:19;13.07;;;5.90;;
71800;SDS011;59647;55.838;37.292;2023-04-24T04:23:46;11.70;;;6.57;;
71800;SDS011;59647;55.838;37.292;2023-04-24T04:26:18;12.38;;;6.63;;
71800;SDS011;59647;55.838;37.292;2023-04-24T04:29:05;13.05;;;5.82;;
71800;SDS011;59647;55.838;37.292;2023-04-24T04:31:34;19.15;;;6.78;;
71800;SDS011;59647;55.838;37.292;2023-04-24T04:34:05;17.85;;;7.15;;
71800;SDS011;59647;55.838;37.292;2023-04-24T04:36:33;20.13;;;7.22;;
71800;SDS011;59647;55.838;37.292;2023-04-24T04:39:13;13.18;;;6.18;;
71800;SDS011;59647;55.838;37.292;2023-04-24T04:42:09;14.20;;;6.50;;
71800;SDS011;59647;55.838;37.292;2023-04-24T04:44:39;13.00;;;6.07;;
71800;SDS011;59647;55.838;37.292;2023-04-24T04:47:08;13.00;;;6.00;;
71800;SDS011;59647;55.838;37.292;2023-04-24T04:49:37;10.43;;;5.85;;
71800;SDS011;59647;55.838;37.292;2023-04-24T04:52:08;18.35;;;6.60;;
71800;SDS011;59647;55.838;37.292;2023-04-24T04:54:34;14.18;;;6.35;;
71800;SDS011;59647;55.838;37.292;2023-04-24T04:57:00;18.83;;;6.50;;
71800;SDS011;59647;55.838;37.292;2023-04-24T04:59:27;20.27;;;6.75;;
71800;SDS011;59647;55.838;37.292;2023-04-24T05:02:00;13.65;;;6.38;;
71800;SDS011;59647;55.838;37.292;2023-04-24T05:04:26;16.45;;;6.70;;
71800;SDS011;59647;55.838;37.292;2023-04-24T05:06:52;13.45;;;7.72;;
71800;SDS011;59647;55.838;37.292;2023-04-24T05:09:19;18.67;;;7.45;;
71800;SDS011;59647;55.838;37.292;2023-04-24T05:11:53;21.02;;;7.32;;
71800;SDS011;59647;55.838;37.292;2023-04-24T05:14:21;17.63;;;6.38;;
71800;SDS011;59647;55.838;37.292;2023-04-24T05:16:48;14.85;;;6.80;;
71800;SDS011;59647;55.838;37.292;2023-04-24T05:19:16;17.13;;;6.68;;
71800;SDS011;59647;55.838;37.292;2023-04-24T05:21:44;22.08;;;6.75;;
71800;SDS011;59647;55.838;37.292;2023-04-24T05:24:10;17.13;;;7.28;;
71800;SDS011;59647;55.838;37.292;2023-04-24T05:26:50;13.63;;;6.13;;
71800;SDS011;59647;55.838;37.292;2023-04-24T05:29:20;13.75;;;7.05;;
71800;SDS011;59647;55.838;37.292;2023-04-24T05:31:46;22.48;;;7.07;;
71800;SDS011;59647;55.838;37.292;2023-04-24T05:34:12;12.52;;;6.63;;
71800;SDS011;59647;55.838;37.292;2023-04-24T05:36:42;15.70;;;6.38;;
71800;SDS011;59647;55.838;37.292;2023-04-24T05:39:08;21.33;;;9.15;;
71800;SDS011;59647;55.838;37.292;2023-04-24T05:41:34;15.40;;;7.45;;
71800;SDS011;59647;55.838;37.292;2023-04-24T05:44:00;11.60;;;5.95;;
71800;SDS011;59647;55.838;37.292;2023-04-24T05:46:26;18.13;;;6.07;;
71800;SDS011;59647;55.838;37.292;2023-04-24T05:48:52;19.88;;;6.35;;
71800;SDS011;59647;55.838;37.292;2023-04-24T05:51:18;12.77;;;6.65;;
71800;SDS011;59647;55.838;37.292;2023-04-24T05:53:44;15.00;;;6.53;;
71800;SDS011;59647;55.838;37.292;2023-04-24T05:56:11;11.05;;;5.70;;
71800;SDS011;59647;55.838;37.292;2023-04-24T05:58:37;15.40;;;6.55;;
71800;SDS011;59647;55.838;37.292;2023-04-24T06:01:04;12.43;;;5.95;;
71800;SDS011;59647;55.838;37.292;2023-04-24T06:03:30;13.48;;;6.05;;
71800;SDS011;59647;55.838;37.292;2023-04-24T06:05:57;16.08;;;5.63;;
71800;SDS011;59647;55.838;37.292;2023-04-24T06:08:23;16.15;;;6.03;;
71800;SDS011;59647;55.838;37.292;2023-04-24T06:10:51;17.65;;;5.78;;
71800;SDS011;59647;55.838;37.292;2023-04-24T06:13:19;12.77;;;5.82;;
71800;SDS011;59647;55.838;37.292;2023-04-24T06:16:05;12.05;;;5.93;;
71800;SDS011;59647;55.838;37.292;2023-04-24T06:18:34;12.70;;;6.43;;
71800;SDS011;59647;55.838;37.292;2023-04-24T06:21:01;11.63;;;5.70;;
71800;SDS011;59647;55.838;37.292;2023-04-24T06:23:29;13.07;;;5.25;;
71800;SDS011;59647;55.838;37.292;2023-04-24T06:25:57;13.68;;;5.53;;
71800;SDS011;59647;55.838;37.292;2023-04-24T06:28:24;14.68;;;5.32;;
71800;SDS011;59647;55.838;37.292;2023-04-24T06:30:51;13.93;;;5.80;;
71800;SDS011;59647;55.838;37.292;2023-04-24T06:33:18;11.68;;;4.82;;
71800;SDS011;59647;55.838;37.292;2023-04-24T06:35:44;10.57;;;4.90;;
71800;SDS011;59647;55.838;37.292;2023-04-24T06:38:10;14.40;;;4.95;;
71800;SDS011;59647;55.838;37.292;2023-04-24T06:40:36;10.43;;;4.20;;
71800;SDS011;59647;55.838;37.292;2023-04-24T06:43:02;12.38;;;5.25;;
71800;SDS011;59647;55.838;37.292;2023-04-24T06:45:29;12.70;;;4.93;;
71800;SDS011;59647;55.838;37.292;2023-04-24T06:47:55;15.02;;;5.32;;
71800;SDS011;59647;55.838;37.292;2023-04-24T06:50:22;10.95;;;4.95;;
71800;SDS011;59647;55.838;37.292;2023-04-24T06:52:48;10.05;;;5.57;;
71800;SDS011;59647;55.838;37.292;2023-04-24T06:55:13;12.63;;;6.10;;
71800;SDS011;59647;55.838;37.292;2023-04-24T06:57:42;22.17;;;5.18;;
71800;SDS011;59647;55.838;37.292;2023-04-24T07:00:09;14.15;;;5.22;;
71800;SDS011;59647;55.838;37.292;2023-04-24T07:02:36;15.43;;;4.70;;
71800;SDS011;59647;55.838;37.292;2023-04-24T07:05:03;11.82;;;4.85;;
71800;SDS011;59647;55.838;37.292;2023-04-24T07:07:31;10.98;;;4.65;;
71800;SDS011;59647;55.838;37.292;2023-04-24T07:09:57;10.73;;;5.15;;
71800;SDS011;59647;55.838;37.292;2023-04-24T07:12:23;15.60;;;5.78;;
71800;SDS011;59647;55.838;37.292;2023-04-24T07:14:50;10.25;;;4.93;;
71800;SDS011;59647;55.838;37.292;2023-04-24T07:17:16;14.48;;;4.90;;
71800;SDS011;59647;55.838;37.292;2023-04-24T07:19:42;7.53;;;4.32;;
71800;SDS011;59647;55.838;37.292;2023-04-24T07:22:08;11.48;;;4.88;;
71800;SDS011;59647;55.838;37.292;2023-04-24T07:24:37;8.38;;;3.90;;
71800;SDS011;59647;55.838;37.292;2023-04-24T07:27:03;11.30;;;4.70;;
71800;SDS011;59647;55.838;37.292;2023-04-24T07:29:29;9.82;;;4.88;;
71800;SDS011;59647;55.838;37.292;2023-04-24T07:31:55;10.60;;;5.38;;
71800;SDS011;59647;55.838;37.292;2023-04-24T07:34:22;10.43;;;4.97;;
71800;SDS011;59647;55.838;37.292;2023-04-24T07:36:48;16.58;;;5.15;;
71800;SDS011;59647;55.838;37.292;2023-04-24T07:39:13;9.27;;;4.55;;
71800;SDS011;59647;55.838;37.292;2023-04-24T07:41:39;15.23;;;4.05;;
71800;SDS011;59647;55.838;37.292;2023-04-24T07:44:05;7.95;;;4.35;;
71800;SDS011;59647;55.838;37.292;2023-04-24T07:46:31;9.88;;;3.97;;
71800;SDS011;59647;55.838;37.292;2023-04-24T07:48:57;14.57;;;4.07;;
71800;SDS011;59647;55.838;37.292;2023-04-24T07:51:24;8.32;;;3.80;;
71800;SDS011;59647;55.838;37.292;2023-04-24T07:53:52;7.93;;;3.65;;
71800;SDS011;59647;55.838;37.292;2023-04-24T07:56:20;6.32;;;3.47;;
71800;SDS011;59647;55.838;37.292;2023-04-24T07:58:46;10.38;;;3.70;;
71800;SDS011;59647;55.838;37.292;2023-04-24T08:01:13;7.53;;;4.15;;
71800;SDS011;59647;55.838;37.292;2023-04-24T08:03:39;18.02;;;6.10;;
71800;SDS011;59647;55.838;37.292;2023-04-24T08:06:05;7.85;;;3.63;;
71800;SDS011;59647;55.838;37.292;2023-04-24T08:08:31;5.43;;;3.22;;
71800;SDS011;59647;55.838;37.292;2023-04-24T08:10:57;8.25;;;3.78;;
71800;SDS011;59647;55.838;37.292;2023-04-24T08:13:23;8.57;;;3.40;;
71800;SDS011;59647;55.838;37.292;2023-04-24T08:15:49;8.85;;;3.30;;
71800;SDS011;59647;55.838;37.292;2023-04-24T08:18:15;5.70;;;2.67;;
71800;SDS011;59647;55.838;37.292;2023-04-24T08:20:41;7.60;;;3.47;;
71800;SDS011;59647;55.838;37.292;2023-04-24T08:23:07;9.48;;;2.97;;
71800;SDS011;59647;55.838;37.292;2023-04-24T08:25:33;7.18;;;3.75;;
71800;SDS011;59647;55.838;37.292;2023-04-24T08:28:02;9.40;;;3.30;;
71800;SDS011;59647;55.838;37.292;2023-04-24T08:30:29;5.57;;;3.13;;
71800;SDS011;59647;55.838;37.292;2023-04-24T08:32:56;6.75;;;2.83;;
71800;SDS011;59647;55.838;37.292;2023-04-24T08:35:22;8.13;;;3.45;;
71800;SDS011;59647;55.838;37.292;2023-04-24T08:37:48;5.18;;;3.25;;
71800;SDS011;59647;55.838;37.292;2023-04-24T08:40:14;6.65;;;3.20;;
71800;SDS011;59647;55.838;37.292;2023-04-24T08:42:42;9.07;;;3.58;;
71800;SDS011;59647;55.838;37.292;2023-04-24T08:45:12;7.97;;;3.95;;
71800;SDS011;59647;55.838;37.292;2023-04-24T08:47:39;10.90;;;3.78;;
71800;SDS011;59647;55.838;37.292;2023-04-24T08:50:06;8.82;;;4.07;;
71800;SDS011;59647;55.838;37.292;2023-04-24T08:52:33;7.82;;;3.75;;
71800;SDS011;59647;55.838;37.292;2023-04-24T08:55:00;5.07;;;3.17;;
71800;SDS011;59647;55.838;37.292;2023-04-24T08:57:30;9.20;;;3.20;;
71800;SDS011;59647;55.838;37.292;2023-04-24T08:59:58;7.22;;;3.22;;
71800;SDS011;59647;55.838;37.292;2023-04-24T09:02:24;9.82;;;3.63;;
71800;SDS011;59647;55.838;37.292;2023-04-24T09:04:51;6.63;;;3.05;;
71800;SDS011;59647;55.838;37.292;2023-04-24T09:07:18;7.32;;;3.20;;
71800;SDS011;59647;55.838;37.292;2023-04-24T09:09:47;9.57;;;4.10;;
71800;SDS011;59647;55.838;37.292;2023-04-24T09:12:15;6.03;;;3.20;;
71800;SDS011;59647;55.838;37.292;2023-04-24T09:14:42;10.27;;;3.83;;
71800;SDS011;59647;55.838;37.292;2023-04-24T09:17:10;6.22;;;3.22;;
71800;SDS011;59647;55.838;37.292;2023-04-24T09:19:37;8.45;;;4.00;;
71800;SDS011;59647;55.838;37.292;2023-04-24T09:22:06;8.05;;;3.50;;
71800;SDS011;59647;55.838;37.292;2023-04-24T09:24:33;14.60;;;3.83;;
71800;SDS011;59647;55.838;37.292;2023-04-24T09:27:00;5.82;;;3.47;;
71800;SDS011;59647;55.838;37.292;2023-04-24T09:29:27;5.43;;;3.38;;
71800;SDS011;59647;55.838;37.292;2023-04-24T09:31:53;6.97;;;3.45;;
71800;SDS011;59647;55.838;37.292;2023-04-24T09:34:23;8.73;;;3.80;;
71800;SDS011;59647;55.838;37.292;2023-04-24T09:36:53;6.95;;;3.05;;
71800;SDS011;59647;55.838;37.292;2023-04-24T09:39:19;12.05;;;3.80;;
71800;SDS011;59647;55.838;37.292;2023-04-24T09:44:16;5.20;;;2.97;;
71800;SDS011;59647;55.838;37.292;2023-04-24T09:46:56;10.75;;;3.20;;
71800;SDS011;59647;55.838;37.292;2023-04-24T09:49:23;9.25;;;3.42;;
71800;SDS011;59647;55.838;37.292;2023-04-24T09:51:51;7.63;;;3.67;;
71800;SDS011;59647;55.838;37.292;2023-04-24T09:54:19;5.90;;;3.47;;
71800;SDS011;59647;55.838;37.292;2023-04-24T09:56:47;10.02;;;3.35;;
71800;SDS011;59647;55.838;37.292;2023-04-24T09:59:16;7.97;;;3.47;;
71800;SDS011;59647;55.838;37.292;2023-04-24T10:01:44;6.18;;;3.13;;
71800;SDS011;59647;55.838;37.292;2023-04-24T10:04:32;14.65;;;4.32;;
71800;SDS011;59647;55.838;37.292;2023-04-24T10:06:57;8.85;;;3.10;;
71800;SDS011;59647;55.838;37.292;2023-04-24T10:09:24;10.63;;;3.78;;
71800;SDS011;59647;55.838;37.292;2023-04-24T10:11:52;5.55;;;3.03;;
71800;SDS011;59647;55.838;37.292;2023-04-24T10:14:20;5.25;;;2.97;;
71800;SDS011;59647;55.838;37.292;2023-04-24T10:16:47;7.30;;;3.53;;
71800;SDS011;59647;55.838;37.292;2023-04-24T10:19:14;6.28;;;3.70;;
71800;SDS011;59647;55.838;37.292;2023-04-24T10:21:42;5.13;;;3.08;;
71800;SDS011;59647;55.838;37.292;2023-04-24T10:24:18;5.50;;;3.20;;
71800;SDS011;59647;55.838;37.292;2023-04-24T10:26:47;5.43;;;3.17;;
71800;SDS011;59647;55.838;37.292;2023-04-24T10:29:14;9.35;;;3.13;;
71800;SDS011;59647;55.838;37.292;2023-04-24T10:31:42;5.90;;;3.70;;
71800;SDS011;59647;55.838;37.292;2023-04-24T10:34:10;11.77;;;3.60;;
71800;SDS011;59647;55.838;37.292;2023-04-24T10:36:41;9.25;;;3.85;;
71800;SDS011;59647;55.838;37.292;2023-04-24T10:39:11;6.30;;;3.13;;
71800;SDS011;59647;55.838;37.292;2023-04-24T10:41:40;9.40;;;4.03;;
71800;SDS011;59647;55.838;37.292;2023-04-24T10:44:13;9.40;;;4.20;;
71800;SDS011;59647;55.838;37.292;2023-04-24T10:46:42;10.77;;;4.63;;
71800;SDS011;59647;55.838;37.292;2023-04-24T10:49:09;3.88;;;2.83;;
71800;SDS011;59647;55.838;37.292;2023-04-24T10:51:46;13.23;;;4.30;;
71800;SDS011;59647;55.838;37.292;2023-04-24T10:59:42;6.10;;;3.30;;
71800;SDS011;59647;55.838;37.292;2023-04-24T11:02:09;8.65;;;3.60;;
71800;SDS011;59647;55.838;37.292;2023-04-24T11:04:35;11.90;;;3.58;;
71800;SDS011;59647;55.838;37.292;2023-04-24T11:07:04;6.03;;;3.35;;
71800;SDS011;59647;55.838;37.292;2023-04-24T11:09:31;6.80;;;3.28;;
71800;SDS011;59647;55.838;37.292;2023-04-24T11:12:05;6.72;;;3.47;;
71800;SDS011;59647;55.838;37.292;2023-04-24T11:17:29;7.60;;;3.50;;
71800;SDS011;59647;55.838;37.292;2023-04-24T11:20:17;6.78;;;3.40;;
71800;SDS011;59647;55.838;37.292;2023-04-24T11:22:43;11.23;;;3.00;;
71800;SDS011;59647;55.838;37.292;2023-04-24T11:25:09;8.93;;;3.42;;
71800;SDS011;59647;55.838;37.292;2023-04-24T11:27:41;7.10;;;3.30;;
71800;SDS011;59647;55.838;37.292;2023-04-24T11:30:08;7.40;;;3.70;;
71800;SDS011;59647;55.838;37.292;2023-04-24T11:32:37;5.78;;;3.20;;
71800;SDS011;59647;55.838;37.292;2023-04-24T11:37:55;7.90;;;3.20;;
71800;SDS011;59647;55.838;37.292;2023-04-24T11:40:21;6.80;;;3.13;;
71800;SDS011;59647;55.838;37.292;2023-04-24T11:42:50;8.13;;;3.67;;
71800;SDS011;59647;55.838;37.292;2023-04-24T11:47:45;7.70;;;3.17;;
71800;SDS011;59647;55.838;37.292;2023-04-24T11:50:11;8.98;;;3.25;;
71800;SDS011;59647;55.838;37.292;2023-04-24T11:52:40;12.32;;;3.42;;
71800;SDS011;59647;55.838;37.292;2023-04-24T11:57:46;5.15;;;3.38;;
71800;SDS011;59647;55.838;37.292;2023-04-24T12:00:19;7.38;;;2.83;;
71800;SDS011;59647;55.838;37.292;2023-04-24T12:02:47;7.22;;;3.38;;
71800;SDS011;59647;55.838;37.292;2023-04-24T12:05:24;7.43;;;2.70;;
71800;SDS011;59647;55.838;37.292;2023-04-24T12:07:54;6.38;;;2.92;;
71800;SDS011;59647;55.838;37.292;2023-04-24T12:10:20;9.82;;;3.40;;
71800;SDS011;59647;55.838;37.292;2023-04-24T12:12:47;6.32;;;3.15;;
71800;SDS011;59647;55.838;37.292;2023-04-24T12:15:15;5.93;;;3.00;;
71800;SDS011;59647;55.838;37.292;2023-04-24T12:17:42;4.95;;;3.10;;
71800;SDS011;59647;55.838;37.292;2023-04-24T12:20:09;3.97;;;2.67;;
71800;SDS011;59647;55.838;37.292;2023-04-24T12:22:58;8.63;;;2.47;;
71800;SDS011;59647;55.838;37.292;2023-04-24T12:25:26;7.65;;;3.15;;
71800;SDS011;59647;55.838;37.292;2023-04-24T12:30:28;9.13;;;2.95;;
71800;SDS011;59647;55.838;37.292;2023-04-24T12:32:59;6.63;;;2.90;;
71800;SDS011;59647;55.838;37.292;2023-04-24T12:35:27;4.68;;;2.65;;
71800;SDS011;59647;55.838;37.292;2023-04-24T12:37:55;8.80;;;3.25;;
71800;SDS011;59647;55.838;37.292;2023-04-24T12:40:21;7.55;;;2.90;;
71800;SDS011;59647;55.838;37.292;2023-04-24T12:42:48;7.72;;;2.90;;
71800;SDS011;59647;55.838;37.292;2023-04-24T12:45:15;7.03;;;2.65;;
71800;SDS011;59647;55.838;37.292;2023-04-24T12:47:42;18.67;;;3.67;;
71800;SDS011;59647;55.838;37.292;2023-04-24T12:50:10;7.93;;;3.05;;
71800;SDS011;59647;55.838;37.292;2023-04-24T12:52:37;10.27;;;3.25;;
71800;SDS011;59647;55.838;37.292;2023-04-24T12:55:04;6.60;;;3.38;;
71800;SDS011;59647;55.838;37.292;2023-04-24T12:57:33;5.13;;;2.63;;
71800;SDS011;59647;55.838;37.292;2023-04-24T13:00:00;6.45;;;3.00;;
71800;SDS011;59647;55.838;37.292;2023-04-24T13:02:33;5.25;;;2.40;;
71800;SDS011;59647;55.838;37.292;2023-04-24T13:05:00;4.95;;;2.50;;
71800;SDS011;59647;55.838;37.292;2023-04-24T13:07:31;6.95;;;2.78;;
71800;SDS011;59647;55.838;37.292;2023-04-24T13:09:57;4.28;;;2.40;;
71800;SDS011;59647;55.838;37.292;2023-04-24T13:12:23;5.30;;;2.58;;
71800;SDS011;59647;55.838;37.292;2023-04-24T13:14:49;5.40;;;2.55;;
71800;SDS011;59647;55.838;37.292;2023-04-24T13:17:15;6.65;;;2.83;;
71800;SDS011;59647;55.838;37.292;2023-04-24T13:19:41;6.55;;;2.90;;
71800;SDS011;59647;55.838;37.292;2023-04-24T13:22:09;4.40;;;2.88;;
71800;SDS011;59647;55.838;37.292;2023-04-24T13:24:36;4.68;;;2.33;;
71800;SDS011;59647;55.838;37.292;2023-04-24T13:27:03;8.65;;;2.63;;
71800;SDS011;59647;55.838;37.292;2023-04-24T13:29:29;14.85;;;3.63;;
71800;SDS011;59647;55.838;37.292;2023-04-24T13:31:55;7.00;;;2.38;;
71800;SDS011;59647;55.838;37.292;2023-04-24T13:34:22;7.20;;;2.97;;
71800;SDS011;59647;55.838;37.292;2023-04-24T13:36:53;5.05;;;2.85;;
71800;SDS011;59647;55.838;37.292;2023-04-24T13:39:20;6.47;;;2.63;;
71800;SDS011;59647;55.838;37.292;2023-04-24T13:41:46;8.80;;;3.45;;
71800;SDS011;59647;55.838;37.292;2023-04-24T13:44:17;7.68;;;2.85;;
71800;SDS011;59647;55.838;37.292;2023-04-24T13:46:43;10.73;;;2.67;;
71800;SDS011;59647;55.838;37.292;2023-04-24T13:49:11;8.85;;;2.80;;
71800;SDS011;59647;55.838;37.292;2023-04-24T13:51:39;5.88;;;2.72;;
71800;SDS011;59647;55.838;37.292;2023-04-24T13:54:05;5.80;;;3.08;;
71800;SDS011;59647;55.838;37.292;2023-04-24T13:56:32;4.75;;;2.78;;
71800;SDS011;59647;55.838;37.292;2023-04-24T13:58:58;5.95;;;2.72;;
71800;SDS011;59647;55.838;37.292;2023-04-24T14:01:24;5.85;;;3.13;;
71800;SDS011;59647;55.838;37.292;2023-04-24T14:03:51;7.75;;;3.00;;
71800;SDS011;59647;55.838;37.292;2023-04-24T14:06:18;17.58;;;3.75;;
71800;SDS011;59647;55.838;37.292;2023-04-24T14:08:45;5.95;;;3.05;;
71800;SDS011;59647;55.838;37.292;2023-04-24T14:11:11;9.60;;;3.85;;
71800;SDS011;59647;55.838;37.292;2023-04-24T14:13:38;11.93;;;4.40;;
71800;SDS011;59647;55.838;37.292;2023-04-24T14:16:05;14.35;;;3.75;;
71800;SDS011;59647;55.838;37.292;2023-04-24T14:18:31;8.65;;;3.28;;
71800;SDS011;59647;55.838;37.292;2023-04-24T14:20:57;8.85;;;2.83;;
71800;SDS011;59647;55.838;37.292;2023-04-24T14:23:24;6.80;;;3.25;;
71800;SDS011;59647;55.838;37.292;2023-04-24T14:25:50;8.10;;;3.40;;
71800;SDS011;59647;55.838;37.292;2023-04-24T14:28:18;13.95;;;3.00;;
71800;SDS011;59647;55.838;37.292;2023-04-24T14:30:44;6.32;;;3.13;;
71800;SDS011;59647;55.838;37.292;2023-04-24T14:33:10;6.93;;;3.03;;
71800;SDS011;59647;55.838;37.292;2023-04-24T14:35:37;5.28;;;3.05;;
71800;SDS011;59647;55.838;37.292;2023-04-24T14:38:03;12.63;;;3.50;;
71800;SDS011;59647;55.838;37.292;2023-04-24T14:40:28;9.90;;;3.92;;
71800;SDS011;59647;55.838;37.292;2023-04-24T14:42:56;7.20;;;3.30;;
71800;SDS011;59647;55.838;37.292;2023-04-24T14:45:23;10.63;;;3.22;;
71800;SDS011;59647;55.838;37.292;2023-04-24T14:47:50;4.72;;;3.33;;
71800;SDS011;59647;55.838;37.292;2023-04-24T14:50:16;6.25;;;3.67;;